Rosenthal, Texas
Current Conditions -  °F | °C
As of 12:35 PM on Thursday 23 Oct 2014 (Local Time) from KPWG Reporting Station
Clear Clear  
Wind Chill: 77°   Ceiling: Unl
Heat Index: 79°   Visibility: 10mi
Dew Point: 57°   Wind: 3mph
Humidity: 50%   Direction: 190°S
Pressure: 30.16"   Gusts: NA
Location:  31.3976°N, 97.22°W
Report Text: KPWG 231735Z AUTO 19003KT 10SM CLR 25/14 A3016 RMK AO1
Loading
Personal Weather Stations






























Interactive Weather Map
Tropical Storm Tracking
New forecast layout! Learn more

10-Day Weather Forecast

Advertisements
Track Severe Weather on mobile